createdAt,value
2022-12-13T00:00:27.096Z,13.40
2022-12-13T00:01:32.410Z,13.63
2022-12-13T00:02:34.757Z,15.15
2022-12-13T00:03:37.023Z,15.50
2022-12-13T00:04:39.457Z,13.98
2022-12-13T00:05:45.077Z,14.95
2022-12-13T00:06:48.013Z,15.73
2022-12-13T00:07:50.267Z,17.33
2022-12-13T00:08:53.144Z,13.57
2022-12-13T00:09:55.499Z,14.20
2022-12-13T00:11:06.505Z,13.90
2022-12-13T00:13:10.661Z,14.23
2022-12-13T00:14:14.192Z,13.77
2022-12-13T00:15:16.976Z,14.07
2022-12-13T00:16:24.315Z,14.60
2022-12-13T00:17:26.716Z,13.75
2022-12-13T00:18:29.455Z,14.38
2022-12-13T00:19:31.874Z,12.18
2022-12-13T00:20:34.473Z,13.10
2022-12-13T00:21:36.683Z,14.60
2022-12-13T00:22:39.057Z,16.65
2022-12-13T00:23:41.467Z,12.63
2022-12-13T00:24:46.213Z,13.73
2022-12-13T00:25:48.723Z,15.32
2022-12-13T00:26:54.123Z,14.13
2022-12-13T00:27:56.919Z,14.30
2022-12-13T00:29:06.133Z,15.45
2022-12-13T00:30:09.116Z,15.15
2022-12-13T00:31:51.498Z,16.25
2022-12-13T00:32:33.417Z,13.60
2022-12-13T00:33:39.568Z,14.82
2022-12-13T00:34:41.811Z,13.02
2022-12-13T00:35:46.115Z,14.63
2022-12-13T00:36:48.690Z,16.77
2022-12-13T00:37:50.847Z,13.30
2022-12-13T00:39:13.880Z,15.68
2022-12-13T00:40:16.509Z,15.80
2022-12-13T00:41:20.173Z,16.17
2022-12-13T00:42:22.386Z,16.33
2022-12-13T00:43:24.590Z,14.52
2022-12-13T00:44:26.967Z,17.40
2022-12-13T00:45:29.373Z,14.88
2022-12-13T00:46:32.382Z,20.30
2022-12-13T00:47:34.661Z,18.40
2022-12-13T00:48:37.289Z,16.25
2022-12-13T00:49:39.475Z,17.13
2022-12-13T00:50:42.307Z,18.10
2022-12-13T00:51:44.489Z,19.25
2022-12-13T00:52:46.834Z,17.60
2022-12-13T00:53:49.542Z,16.60
2022-12-13T00:54:51.718Z,17.02
2022-12-13T00:55:54.534Z,16.45
2022-12-13T00:56:56.809Z,17.15
2022-12-13T00:57:59.094Z,15.40
2022-12-13T00:59:01.683Z,17.10
2022-12-13T01:00:05.232Z,16.90
2022-12-13T01:01:10.209Z,18.98
2022-12-13T01:02:12.725Z,17.17
2022-12-13T01:03:21.051Z,16.70
2022-12-13T01:04:23.525Z,17.90
2022-12-13T01:06:03.761Z,15.93
2022-12-13T01:06:50.055Z,16.20
2022-12-13T01:07:52.353Z,21.98
2022-12-13T01:08:54.676Z,18.08
2022-12-13T01:09:58.570Z,16.45
2022-12-13T01:11:00.764Z,16.75
2022-12-13T01:12:06.983Z,16.05
2022-12-13T01:13:09.157Z,18.23
2022-12-13T01:14:11.683Z,15.23
2022-12-13T01:15:14.344Z,14.80
2022-12-13T01:16:18.698Z,17.45
2022-12-13T01:17:21.319Z,15.23
2022-12-13T01:18:23.608Z,16.48
2022-12-13T01:19:28.114Z,15.30
2022-12-13T01:20:30.261Z,18.10
2022-12-13T01:21:32.547Z,19.27
2022-12-13T01:22:34.721Z,15.85
2022-12-13T01:23:36.904Z,18.30
2022-12-13T01:24:39.109Z,16.77
2022-12-13T01:25:41.277Z,16.90
2022-12-13T01:26:43.437Z,19.33
2022-12-13T01:27:45.579Z,19.88
2022-12-13T01:28:48.287Z,19.48
2022-12-13T01:29:50.459Z,20.27
2022-12-13T01:31:06.286Z,17.40
2022-12-13T01:32:08.467Z,19.13
2022-12-13T01:33:13.917Z,20.00
2022-12-13T01:34:20.026Z,19.38
2022-12-13T01:35:22.195Z,19.42
2022-12-13T01:36:27.342Z,17.38
2022-12-13T01:37:30.819Z,20.30
2022-12-13T01:38:39.862Z,19.10
2022-12-13T01:39:42.239Z,17.25
2022-12-13T01:40:50.114Z,18.75
2022-12-13T01:41:59.865Z,19.92
2022-12-13T01:43:02.396Z,21.85
2022-12-13T01:44:53.826Z,18.65
2022-12-13T01:45:56.042Z,20.13
2022-12-13T01:46:58.448Z,32.15
2022-12-13T01:48:07.739Z,21.60
2022-12-13T01:49:20.003Z,18.13
2022-12-13T01:50:31.968Z,20.27
2022-12-13T01:51:44.731Z,22.15
2022-12-13T01:52:49.258Z,19.88
2022-12-13T01:53:53.489Z,20.63
2022-12-13T01:55:15.187Z,19.77
2022-12-13T01:56:26.144Z,19.95
2022-12-13T01:57:28.728Z,22.60
2022-12-13T01:58:31.884Z,19.25
2022-12-13T01:59:37.453Z,18.40
2022-12-13T02:00:40.994Z,18.00
2022-12-13T02:01:43.987Z,19.30
2022-12-13T02:02:48.137Z,19.70
2022-12-13T02:03:50.466Z,23.00
2022-12-13T02:05:03.048Z,19.17
2022-12-13T02:06:14.297Z,18.70
2022-12-13T02:07:22.863Z,19.02
2022-12-13T02:08:26.509Z,19.60
2022-12-13T02:09:28.883Z,19.45
2022-12-13T02:10:32.329Z,20.88
2022-12-13T02:11:38.778Z,19.63
2022-12-13T02:12:41.588Z,20.35
2022-12-13T02:13:43.929Z,21.63
2022-12-13T02:14:46.147Z,19.75
2022-12-13T02:16:04.683Z,22.33
2022-12-13T02:17:12.522Z,19.70
2022-12-13T02:18:19.307Z,22.23
2022-12-13T02:19:40.294Z,19.88
2022-12-13T02:20:42.395Z,20.73
2022-12-13T02:22:23.419Z,20.15
2022-12-13T02:25:04.504Z,21.25
2022-12-13T02:26:45.468Z,20.55
2022-12-13T02:28:31.187Z,20.13
2022-12-13T02:29:52.767Z,19.35
2022-12-13T02:31:06.815Z,20.33
2022-12-13T02:32:18.074Z,19.33
2022-12-13T02:33:25.276Z,18.80
2022-12-13T02:34:41.744Z,20.92
2022-12-13T02:36:00.312Z,20.23
2022-12-13T02:37:17.625Z,22.88
2022-12-13T02:38:24.834Z,20.38
2022-12-13T02:39:43.470Z,18.75
2022-12-13T02:40:55.082Z,19.30
2022-12-13T02:42:21.406Z,21.27
2022-12-13T02:43:33.505Z,21.38
2022-12-13T02:44:45.429Z,19.05
2022-12-13T02:45:50.658Z,20.13
2022-12-13T02:47:01.395Z,22.63
2022-12-13T02:48:06.078Z,18.75
2022-12-13T02:49:10.596Z,20.77
2022-12-13T02:50:14.787Z,19.13
2022-12-13T02:51:19.691Z,18.67
2022-12-13T02:52:26.726Z,20.17
2022-12-13T02:53:30.534Z,19.63
2022-12-13T02:54:37.187Z,22.75
2022-12-13T02:55:45.377Z,20.30
2022-12-13T02:56:58.002Z,20.05
2022-12-13T02:58:00.554Z,18.30
2022-12-13T02:59:12.619Z,20.02
2022-12-13T03:00:19.122Z,20.55
2022-12-13T03:01:41.295Z,21.17
2022-12-13T03:03:10.535Z,19.55
2022-12-13T03:04:37.639Z,23.30
2022-12-13T03:06:33.929Z,21.38
2022-12-13T03:07:51.738Z,20.15
2022-12-13T03:09:30.976Z,23.25
2022-12-13T03:10:41.589Z,19.85
2022-12-13T03:12:12.201Z,17.90
2022-12-13T03:13:37.106Z,17.15
2022-12-13T03:14:46.897Z,17.92
2022-12-13T03:16:04.139Z,18.08
2022-12-13T03:17:09.525Z,17.15
2022-12-13T03:18:19.769Z,18.17
2022-12-13T03:19:22.282Z,21.63
2022-12-13T03:20:26.956Z,17.50
2022-12-13T03:21:29.885Z,18.05
2022-12-13T03:22:34.843Z,19.67
2022-12-13T03:23:38.084Z,17.60
2022-12-13T03:24:40.702Z,18.05
2022-12-13T03:25:44.433Z,19.75
2022-12-13T03:26:48.434Z,18.25
2022-12-13T03:27:51.282Z,18.95
2022-12-13T03:28:53.896Z,19.40
2022-12-13T03:29:56.471Z,20.63
2022-12-13T03:30:59.219Z,18.70
2022-12-13T03:32:01.842Z,18.27
2022-12-13T03:33:04.391Z,18.60
2022-12-13T03:34:06.735Z,20.48
2022-12-13T03:35:22.079Z,19.80
2022-12-13T03:36:25.501Z,19.45
2022-12-13T03:37:27.973Z,19.15
2022-12-13T03:38:30.522Z,18.27
2022-12-13T03:39:33.176Z,18.40
2022-12-13T03:40:38.045Z,19.77
2022-12-13T03:41:40.434Z,23.25
2022-12-13T03:42:42.896Z,20.85
2022-12-13T03:43:45.443Z,18.85
2022-12-13T03:44:48.000Z,20.80
2022-12-13T03:45:53.918Z,18.27
2022-12-13T03:46:56.102Z,19.00
2022-12-13T03:48:03.236Z,20.70
2022-12-13T03:49:05.393Z,18.75
2022-12-13T03:50:26.206Z,18.85
2022-12-13T03:51:29.369Z,21.50
2022-12-13T03:52:31.505Z,21.58
2022-12-13T03:53:34.671Z,19.75
2022-12-13T03:54:37.294Z,21.88
2022-12-13T03:55:39.550Z,18.90
2022-12-13T03:56:41.787Z,21.70
2022-12-13T03:57:44.162Z,21.05
2022-12-13T03:58:46.333Z,20.13
2022-12-13T03:59:48.694Z,21.20
2022-12-13T04:00:51.102Z,22.17
2022-12-13T04:01:53.543Z,20.58
2022-12-13T04:02:55.814Z,22.20
2022-12-13T04:03:58.007Z,20.83
2022-12-13T04:05:00.727Z,26.35
2022-12-13T04:06:04.521Z,21.85
2022-12-13T04:07:06.764Z,24.05
2022-12-13T04:08:24.962Z,19.55
2022-12-13T04:09:27.203Z,23.50
2022-12-13T04:10:30.219Z,19.45
2022-12-13T04:11:50.910Z,19.52
2022-12-13T04:14:22.860Z,18.98
2022-12-13T04:15:25.601Z,18.85
2022-12-13T04:16:27.998Z,19.73
2022-12-13T04:17:30.346Z,22.50
2022-12-13T04:18:32.601Z,22.33
2022-12-13T04:19:35.065Z,19.80
2022-12-13T04:20:37.214Z,20.85
2022-12-13T04:21:39.612Z,19.23
2022-12-13T04:22:41.794Z,21.45
2022-12-13T04:23:44.139Z,21.65
2022-12-13T04:24:46.421Z,22.58
2022-12-13T04:25:48.824Z,19.98
2022-12-13T04:26:51.608Z,20.38
2022-12-13T04:27:53.764Z,20.92
2022-12-13T04:28:56.403Z,21.92
2022-12-13T04:29:58.784Z,21.88
2022-12-13T04:31:01.025Z,18.95
2022-12-13T04:32:05.012Z,19.95
2022-12-13T04:33:07.364Z,21.45
2022-12-13T04:34:09.566Z,20.92
2022-12-13T04:35:11.929Z,20.42
2022-12-13T04:36:32.113Z,20.25
2022-12-13T04:37:35.418Z,22.55
2022-12-13T04:38:37.772Z,21.38
2022-12-13T04:39:40.131Z,21.70
2022-12-13T04:40:50.013Z,20.05
2022-12-13T04:41:53.317Z,19.40
2022-12-13T04:42:55.565Z,21.85
2022-12-13T04:43:57.728Z,20.30
2022-12-13T04:45:00.628Z,19.83
2022-12-13T04:46:02.938Z,23.70
2022-12-13T04:47:05.957Z,19.98
2022-12-13T04:48:08.502Z,21.10
2022-12-13T04:49:10.765Z,20.13
2022-12-13T04:50:12.982Z,19.70
2022-12-13T04:51:16.688Z,18.50
2022-12-13T04:52:22.589Z,21.70
2022-12-13T04:53:25.061Z,22.58
2022-12-13T04:54:27.465Z,19.90
2022-12-13T04:55:39.236Z,21.17
2022-12-13T04:56:41.435Z,22.67
2022-12-13T04:57:43.902Z,21.00
2022-12-13T04:58:46.113Z,19.67
2022-12-13T04:59:48.541Z,22.50
2022-12-13T05:00:50.742Z,19.45
2022-12-13T05:01:53.186Z,22.77
2022-12-13T05:02:55.637Z,19.45
2022-12-13T05:03:58.343Z,20.73
2022-12-13T05:05:00.513Z,20.20
2022-12-13T05:06:27.629Z,21.02
2022-12-13T05:07:30.224Z,19.20
2022-12-13T05:08:32.647Z,20.38
2022-12-13T05:09:36.096Z,21.95
2022-12-13T05:10:38.457Z,19.63
2022-12-13T05:11:45.867Z,20.52
2022-12-13T05:12:50.180Z,21.23
2022-12-13T05:13:52.367Z,21.27
2022-12-13T05:14:54.571Z,20.40
2022-12-13T05:15:58.599Z,22.33
2022-12-13T05:17:01.684Z,21.00
2022-12-13T05:18:09.716Z,21.00
2022-12-13T05:19:12.990Z,19.25
2022-12-13T05:20:15.361Z,19.90
2022-12-13T05:21:17.749Z,20.42
2022-12-13T05:22:21.179Z,19.92
2022-12-13T05:23:25.071Z,19.65
2022-12-13T05:24:27.236Z,22.30
2022-12-13T05:25:29.407Z,19.90
2022-12-13T05:26:31.888Z,20.83
2022-12-13T05:27:34.487Z,19.60
2022-12-13T05:28:36.848Z,19.13
2022-12-13T05:29:39.275Z,19.67
2022-12-13T05:30:43.259Z,19.20
2022-12-13T05:31:45.711Z,21.50
2022-12-13T05:32:47.954Z,21.67
2022-12-13T05:33:51.372Z,21.13
2022-12-13T05:34:53.542Z,20.33
2022-12-13T05:36:00.478Z,19.67
2022-12-13T05:37:03.879Z,18.80
2022-12-13T05:38:06.651Z,21.02
2022-12-13T05:39:27.824Z,21.58
2022-12-13T05:40:32.375Z,19.00
2022-12-13T05:41:36.834Z,19.95
2022-12-13T05:42:39.389Z,23.42
2022-12-13T05:43:43.215Z,20.38
2022-12-13T05:44:46.211Z,18.38
2022-12-13T05:45:48.402Z,22.02
2022-12-13T05:46:50.790Z,21.58
2022-12-13T05:47:53.061Z,21.35
2022-12-13T05:48:55.240Z,21.95
2022-12-13T05:49:58.757Z,19.90
2022-12-13T05:51:10.917Z,18.27
2022-12-13T05:52:19.312Z,20.02
2022-12-13T05:53:30.946Z,22.50
2022-12-13T05:54:33.373Z,20.65
2022-12-13T05:55:37.901Z,20.55
2022-12-13T05:56:40.144Z,19.42
2022-12-13T05:57:42.416Z,20.83
2022-12-13T05:58:54.187Z,20.83
2022-12-13T05:59:57.515Z,24.92
2022-12-13T06:01:09.758Z,22.00
2022-12-13T06:02:14.448Z,19.00
2022-12-13T06:03:20.911Z,19.80
2022-12-13T06:04:23.587Z,19.92
2022-12-13T06:05:26.192Z,21.80
2022-12-13T06:06:29.255Z,21.13
2022-12-13T06:07:31.558Z,21.92
2022-12-13T06:08:34.054Z,19.60
2022-12-13T06:09:39.955Z,19.60
2022-12-13T06:10:42.691Z,16.80
2022-12-13T06:11:44.854Z,19.45
2022-12-13T06:12:47.030Z,25.35
2022-12-13T06:13:52.380Z,20.33
2022-12-13T06:15:03.472Z,18.77
2022-12-13T06:16:06.666Z,18.58
2022-12-13T06:17:25.275Z,21.00
2022-12-13T06:18:27.430Z,19.02
2022-12-13T06:19:29.802Z,20.15
2022-12-13T06:20:32.141Z,17.00
2022-12-13T06:21:41.145Z,18.40
2022-12-13T06:22:48.035Z,17.40
2022-12-13T06:23:50.180Z,21.20
2022-12-13T06:24:52.887Z,19.65
2022-12-13T06:25:56.593Z,17.10
2022-12-13T06:27:00.281Z,18.52
2022-12-13T06:28:03.254Z,14.90
2022-12-13T06:29:05.443Z,15.70
2022-12-13T06:30:08.383Z,15.52
2022-12-13T06:31:10.846Z,17.70
2022-12-13T06:32:13.489Z,15.38
2022-12-13T06:33:15.725Z,15.85
2022-12-13T06:34:26.007Z,17.92
2022-12-13T06:35:30.399Z,14.68
2022-12-13T06:36:33.665Z,14.18
2022-12-13T06:37:36.201Z,20.75
2022-12-13T06:38:43.640Z,15.75
2022-12-13T06:39:47.498Z,14.63
2022-12-13T06:40:49.652Z,15.40
2022-12-13T06:41:52.992Z,15.43
2022-12-13T06:42:55.524Z,14.77
2022-12-13T06:43:59.609Z,17.38
2022-12-13T06:45:01.942Z,17.40
2022-12-13T06:46:05.963Z,17.38
2022-12-13T06:47:11.641Z,15.93
2022-12-13T06:48:20.065Z,13.77
2022-12-13T06:49:22.541Z,14.57
2022-12-13T06:50:24.930Z,14.10
2022-12-13T06:51:32.419Z,14.25
2022-12-13T06:52:36.833Z,14.88
2022-12-13T06:53:40.324Z,15.27
2022-12-13T06:54:43.145Z,14.25
2022-12-13T06:55:45.601Z,13.50
2022-12-13T06:56:47.942Z,18.98
2022-12-13T06:57:50.352Z,12.95
2022-12-13T06:58:52.506Z,14.05
2022-12-13T07:00:05.150Z,13.55
2022-12-13T07:01:24.050Z,11.48
2022-12-13T07:02:27.246Z,14.40
2022-12-13T07:03:30.275Z,17.55
2022-12-13T07:04:33.084Z,13.68
2022-12-13T07:05:38.182Z,13.60
2022-12-13T07:06:45.610Z,14.20
2022-12-13T07:07:48.334Z,13.60
2022-12-13T07:08:56.835Z,12.70
2022-12-13T07:09:58.984Z,13.00
2022-12-13T07:11:02.126Z,15.52
2022-12-13T07:12:05.054Z,12.70
2022-12-13T07:13:07.584Z,14.82
2022-12-13T07:14:10.188Z,13.52
2022-12-13T07:15:12.391Z,14.23
2022-12-13T07:16:14.823Z,12.85
2022-12-13T07:17:33.281Z,14.30
2022-12-13T07:18:36.879Z,17.20
2022-12-13T07:19:39.947Z,14.20
2022-12-13T07:20:43.387Z,15.10
2022-12-13T07:21:45.610Z,15.00
2022-12-13T07:22:58.330Z,15.00
2022-12-13T07:24:02.309Z,15.60
2022-12-13T07:25:05.267Z,15.15
2022-12-13T07:26:08.752Z,13.70
2022-12-13T07:27:10.959Z,15.60
2022-12-13T07:28:13.159Z,15.50
2022-12-13T07:29:22.580Z,15.27
2022-12-13T07:30:25.123Z,16.65
2022-12-13T07:31:27.690Z,18.50
2022-12-13T07:32:30.326Z,17.00
2022-12-13T07:33:33.459Z,18.92
2022-12-13T07:34:35.913Z,15.70
2022-12-13T07:35:39.000Z,15.60
2022-12-13T07:36:41.369Z,17.73
2022-12-13T07:37:43.750Z,16.85
2022-12-13T07:38:51.224Z,18.15
2022-12-13T07:39:57.929Z,17.25
2022-12-13T07:41:06.108Z,18.00
2022-12-13T07:42:08.306Z,19.10
2022-12-13T07:43:12.011Z,18.85
2022-12-13T07:44:14.228Z,17.85
2022-12-13T07:45:16.716Z,17.48
2022-12-13T07:46:23.517Z,17.27
2022-12-13T07:47:35.465Z,15.60
2022-12-13T07:48:38.141Z,17.90
2022-12-13T07:49:41.031Z,14.93
2022-12-13T07:50:43.457Z,16.40
2022-12-13T07:51:49.168Z,15.93
2022-12-13T07:52:51.586Z,18.50
2022-12-13T07:53:53.950Z,16.40
2022-12-13T07:54:56.344Z,15.73
2022-12-13T07:56:02.825Z,15.63
2022-12-13T07:57:05.103Z,14.45
2022-12-13T07:58:09.884Z,16.45
2022-12-13T07:59:12.117Z,17.42
2022-12-13T08:00:15.062Z,15.40
2022-12-13T08:01:18.369Z,16.83
2022-12-13T08:02:21.027Z,14.90
2022-12-13T08:03:25.379Z,15.40
2022-12-13T08:04:28.301Z,16.77
2022-12-13T08:05:38.755Z,13.93
2022-12-13T08:06:41.717Z,14.93
2022-12-13T08:07:43.934Z,13.82
2022-12-13T08:08:46.740Z,15.45
2022-12-13T08:09:52.758Z,14.45
2022-12-13T08:10:55.511Z,14.38
2022-12-13T08:12:05.249Z,13.38
2022-12-13T08:13:07.459Z,14.43
2022-12-13T08:14:09.850Z,12.02
2022-12-13T08:15:14.152Z,15.32
2022-12-13T08:16:27.471Z,14.32
2022-12-13T08:17:31.648Z,14.93
2022-12-13T08:18:34.109Z,14.93
2022-12-13T08:19:36.457Z,16.98
2022-12-13T08:20:38.792Z,15.57
2022-12-13T08:22:01.449Z,14.63
2022-12-13T08:23:04.545Z,15.90
2022-12-13T08:24:11.119Z,13.77
2022-12-13T08:25:18.049Z,13.68
2022-12-13T08:26:20.641Z,14.05
2022-12-13T08:27:22.878Z,15.35
2022-12-13T08:28:25.862Z,15.13
2022-12-13T08:29:34.451Z,16.45
2022-12-13T08:30:37.761Z,15.35
2022-12-13T08:31:40.256Z,15.80
2022-12-13T08:32:43.001Z,14.73
2022-12-13T08:33:47.321Z,12.82
2022-12-13T08:34:49.850Z,16.65
2022-12-13T08:35:52.521Z,14.88
2022-12-13T08:37:02.846Z,13.60
2022-12-13T08:38:06.038Z,15.30
2022-12-13T08:39:09.091Z,16.10
2022-12-13T08:40:11.491Z,14.75
2022-12-13T08:41:14.259Z,14.25
2022-12-13T08:42:19.867Z,13.85
2022-12-13T08:43:24.888Z,16.70
2022-12-13T08:44:27.351Z,15.52
2022-12-13T08:45:30.531Z,16.65
2022-12-13T08:46:33.671Z,14.35
2022-12-13T08:47:41.594Z,15.38
2022-12-13T08:48:44.702Z,15.85
2022-12-13T08:49:47.564Z,15.68
2022-12-13T08:50:49.736Z,17.08
2022-12-13T08:51:52.331Z,17.65
2022-12-13T08:52:54.537Z,19.08
2022-12-13T08:54:09.987Z,19.27
2022-12-13T08:55:15.403Z,17.40
2022-12-13T08:56:21.330Z,14.68
2022-12-13T08:57:23.614Z,16.00
2022-12-13T08:58:26.340Z,17.08
2022-12-13T08:59:28.575Z,11.40
2022-12-13T09:00:35.906Z,14.57
2022-12-13T09:01:39.196Z,18.40
2022-12-13T09:02:41.845Z,15.38
2022-12-13T09:03:44.204Z,14.18
2022-12-13T09:04:46.606Z,14.70
2022-12-13T09:05:49.036Z,12.27
2022-12-13T09:06:51.598Z,12.95
2022-12-13T09:07:58.201Z,12.50
2022-12-13T09:09:00.563Z,12.57
2022-12-13T09:10:07.083Z,13.75
2022-12-13T09:11:34.736Z,12.95
2022-12-13T09:12:42.245Z,14.73
2022-12-13T09:13:47.841Z,11.07
2022-12-13T09:14:50.058Z,13.65
2022-12-13T09:15:52.411Z,11.93
2022-12-13T09:16:55.049Z,11.95
2022-12-13T09:18:05.852Z,11.57
2022-12-13T09:19:25.770Z,12.43
2022-12-13T09:20:30.119Z,13.15
2022-12-13T09:21:32.656Z,12.38
2022-12-13T09:22:36.086Z,12.32
2022-12-13T09:23:39.403Z,11.27
2022-12-13T09:24:50.221Z,12.80
2022-12-13T09:26:05.705Z,13.38
2022-12-13T09:27:10.363Z,14.02
2022-12-13T09:28:30.422Z,12.73
2022-12-13T09:29:34.172Z,10.98
2022-12-13T09:30:38.334Z,11.70
2022-12-13T09:31:41.102Z,11.13
2022-12-13T09:32:49.636Z,11.55
2022-12-13T09:33:52.163Z,10.18
2022-12-13T09:34:54.762Z,11.60
2022-12-13T09:35:57.137Z,10.57
2022-12-13T09:37:01.525Z,11.07
2022-12-13T09:38:04.068Z,10.25
2022-12-13T09:39:06.724Z,11.13
2022-12-13T09:40:16.076Z,9.38
2022-12-13T09:41:42.455Z,10.63
2022-12-13T09:42:49.643Z,9.57
2022-12-13T09:44:06.379Z,10.32
2022-12-13T09:45:31.671Z,11.25
2022-12-13T09:46:44.906Z,10.48
2022-12-13T09:47:49.803Z,17.95
2022-12-13T09:49:01.643Z,12.95
2022-12-13T09:50:25.506Z,18.75
2022-12-13T09:51:41.461Z,19.73
2022-12-13T09:52:47.486Z,12.98
2022-12-13T09:53:52.890Z,12.60
2022-12-13T09:54:57.711Z,12.73
2022-12-13T09:56:10.788Z,12.02
2022-12-13T09:57:31.908Z,14.52
2022-12-13T09:58:37.303Z,17.48
2022-12-13T09:59:41.492Z,10.40
2022-12-13T10:00:46.104Z,15.80
2022-12-13T10:01:48.445Z,10.10
2022-12-13T10:02:58.738Z,16.63
2022-12-13T10:04:13.063Z,14.95
2022-12-13T10:05:22.201Z,11.93
2022-12-13T10:06:28.742Z,14.05
2022-12-13T10:07:31.058Z,11.65
2022-12-13T10:08:40.613Z,8.10
2022-12-13T10:09:43.465Z,9.10
2022-12-13T10:10:46.205Z,8.23
2022-12-13T10:11:53.508Z,9.15
2022-12-13T10:13:15.236Z,8.40
2022-12-13T10:14:27.754Z,8.18
2022-12-13T10:15:34.129Z,6.43
2022-12-13T10:16:37.196Z,8.55
2022-12-13T10:17:54.848Z,7.60
2022-12-13T10:18:58.178Z,9.93
2022-12-13T10:20:00.787Z,7.43
2022-12-13T10:21:11.769Z,7.35
2022-12-13T10:23:52.489Z,5.80
2022-12-13T10:25:12.031Z,8.20
2022-12-13T10:26:14.884Z,7.32
2022-12-13T10:27:38.003Z,6.68
2022-12-13T10:28:42.156Z,10.73
2022-12-13T10:29:56.479Z,6.55
2022-12-13T10:30:59.844Z,13.73
2022-12-13T10:32:12.567Z,7.85
2022-12-13T10:33:28.893Z,9.77
2022-12-13T10:34:37.252Z,7.07
2022-12-13T10:35:41.998Z,5.28
2022-12-13T10:36:45.199Z,6.78
2022-12-13T10:37:47.591Z,6.75
2022-12-13T10:38:50.735Z,7.75
2022-12-13T10:39:52.887Z,7.40
2022-12-13T10:40:55.149Z,11.73
2022-12-13T10:42:05.820Z,6.63
2022-12-13T10:43:17.605Z,7.25
2022-12-13T10:44:25.443Z,7.25
2022-12-13T10:45:28.016Z,7.38
2022-12-13T10:46:32.154Z,7.97
2022-12-13T10:48:50.964Z,10.40
2022-12-13T10:49:59.417Z,9.50
2022-12-13T10:51:10.452Z,7.35
2022-12-13T10:52:30.684Z,7.95
2022-12-13T10:54:48.953Z,8.32
2022-12-13T10:55:56.197Z,8.07
2022-12-13T10:57:05.438Z,7.75
2022-12-13T10:58:18.470Z,6.95
2022-12-13T10:59:21.074Z,7.18
2022-12-13T11:00:41.923Z,6.75
2022-12-13T11:01:44.755Z,6.10
2022-12-13T11:02:54.663Z,9.63
2022-12-13T11:04:25.403Z,8.18
2022-12-13T11:05:33.417Z,7.20
2022-12-13T11:06:46.916Z,6.05
2022-12-13T11:07:49.366Z,5.50
2022-12-13T11:08:53.376Z,6.47
2022-12-13T11:09:57.617Z,6.30
2022-12-13T11:11:10.102Z,6.18
2022-12-13T11:12:20.504Z,7.32
2022-12-13T11:13:36.984Z,7.63
2022-12-13T11:14:58.238Z,7.80
2022-12-13T11:16:01.926Z,7.05
2022-12-13T11:17:10.539Z,7.15
2022-12-13T11:18:22.184Z,7.40
2022-12-13T11:19:45.657Z,8.02
2022-12-13T11:21:02.792Z,6.70
2022-12-13T11:22:06.289Z,10.90
2022-12-13T11:23:26.076Z,5.68
2022-12-13T11:24:35.844Z,6.68
2022-12-13T11:25:41.827Z,11.55
2022-12-13T11:26:53.782Z,14.63
2022-12-13T11:28:26.395Z,7.45
2022-12-13T11:29:49.632Z,5.82
2022-12-13T11:31:15.932Z,8.55
2022-12-13T11:32:26.882Z,7.28
2022-12-13T11:33:49.860Z,6.80
2022-12-13T11:35:02.067Z,6.57
2022-12-13T11:36:26.821Z,8.05
2022-12-13T11:37:33.967Z,9.02
2022-12-13T11:39:11.793Z,8.68
2022-12-13T11:40:16.861Z,8.10
2022-12-13T11:41:55.611Z,6.55
2022-12-13T11:43:39.842Z,9.05
2022-12-13T11:45:00.883Z,7.63
2022-12-13T11:46:13.419Z,8.63
2022-12-13T11:47:25.017Z,10.77
2022-12-13T11:48:45.551Z,6.20
2022-12-13T11:49:49.561Z,6.28
2022-12-13T11:50:53.629Z,6.82
2022-12-13T11:52:24.304Z,6.28
2022-12-13T11:53:44.333Z,6.28
2022-12-13T11:54:49.663Z,7.55
2022-12-13T11:56:15.241Z,6.78
2022-12-13T11:58:02.703Z,6.65
2022-12-13T11:59:44.488Z,6.50
2022-12-13T12:00:59.536Z,6.53
2022-12-13T12:02:34.197Z,7.45
2022-12-13T12:03:42.955Z,7.95
2022-12-13T12:05:38.284Z,7.43
2022-12-13T12:06:55.611Z,5.60
2022-12-13T12:08:32.489Z,5.70
2022-12-13T12:09:30.014Z,5.80
2022-12-13T12:10:49.329Z,6.75
2022-12-13T12:12:02.179Z,7.55
2022-12-13T12:13:24.420Z,6.28
2022-12-13T12:14:44.879Z,8.32
2022-12-13T12:16:07.035Z,6.82
2022-12-13T12:17:14.640Z,8.65
2022-12-13T12:18:18.004Z,9.60
2022-12-13T12:19:42.032Z,8.75
2022-12-13T12:21:05.751Z,7.47
2022-12-13T12:22:15.222Z,6.80
2022-12-13T12:23:18.141Z,12.93
2022-12-13T12:24:40.269Z,7.55
2022-12-13T12:25:49.439Z,6.90
2022-12-13T12:27:22.551Z,6.85
2022-12-13T12:28:36.999Z,5.72
2022-12-13T12:29:55.724Z,7.85
2022-12-13T12:31:13.571Z,7.72
2022-12-13T12:32:41.212Z,8.80
2022-12-13T12:33:57.266Z,8.02
2022-12-13T12:35:22.217Z,7.90
2022-12-13T12:37:09.657Z,7.18
2022-12-13T12:38:49.413Z,7.93
2022-12-13T12:41:14.250Z,8.95
2022-12-13T12:42:21.037Z,6.82
2022-12-13T12:45:54.606Z,8.10
2022-12-13T12:49:16.879Z,9.07
2022-12-13T12:50:44.307Z,15.02
2022-12-13T12:51:56.144Z,7.03
2022-12-13T12:53:20.061Z,8.40
2022-12-13T12:54:43.189Z,7.20
2022-12-13T12:56:05.489Z,7.57
2022-12-13T12:57:26.232Z,7.10
2022-12-13T12:58:29.036Z,7.30
2022-12-13T13:00:01.315Z,5.40
2022-12-13T13:01:27.443Z,8.23
2022-12-13T13:02:42.070Z,6.15
2022-12-13T13:03:45.644Z,8.40
2022-12-13T13:04:57.463Z,7.30
2022-12-13T13:06:03.051Z,8.40
2022-12-13T13:07:31.848Z,10.80
2022-12-13T13:08:59.254Z,9.43
2022-12-13T13:10:16.473Z,6.38
2022-12-13T13:11:29.935Z,8.85
2022-12-13T13:12:43.137Z,10.23
2022-12-13T13:14:01.924Z,9.35
2022-12-13T13:15:32.342Z,14.70
2022-12-13T13:16:41.400Z,14.18
2022-12-13T13:17:43.602Z,9.60
2022-12-13T13:18:52.349Z,10.27
2022-12-13T13:20:23.296Z,11.55
2022-12-13T13:22:44.332Z,10.05
2022-12-13T13:24:01.947Z,8.73
2022-12-13T13:25:06.803Z,12.18
2022-12-13T13:26:28.022Z,8.38
2022-12-13T13:27:35.949Z,9.38
2022-12-13T13:28:38.303Z,8.93
2022-12-13T13:29:43.805Z,9.63
2022-12-13T13:31:01.736Z,10.95
2022-12-13T13:32:29.282Z,8.88
2022-12-13T13:33:51.422Z,8.77
2022-12-13T13:34:55.542Z,10.98
2022-12-13T13:36:03.820Z,8.05
2022-12-13T13:37:23.031Z,10.10
2022-12-13T13:38:47.230Z,10.13
2022-12-13T13:39:52.469Z,9.98
2022-12-13T13:40:54.822Z,9.60
2022-12-13T13:42:14.619Z,11.30
2022-12-13T13:43:19.543Z,10.20
2022-12-13T13:44:46.662Z,10.57
2022-12-13T13:45:51.856Z,8.55
2022-12-13T13:47:14.558Z,8.02
2022-12-13T13:48:44.389Z,10.02
2022-12-13T13:49:46.542Z,11.25
2022-12-13T13:51:05.536Z,12.48
2022-12-13T13:52:27.413Z,19.83
2022-12-13T13:54:03.935Z,14.60
2022-12-13T13:55:35.897Z,13.00
2022-12-13T13:57:14.706Z,7.70
2022-12-13T13:58:48.004Z,11.00
2022-12-13T14:00:15.075Z,9.07
2022-12-13T14:02:02.933Z,10.48
2022-12-13T14:03:51.109Z,11.95
2022-12-13T14:05:18.063Z,9.85
2022-12-13T14:06:39.034Z,9.50
2022-12-13T14:08:03.873Z,11.23
2022-12-13T14:09:46.035Z,11.75
2022-12-13T14:10:57.398Z,11.07
2022-12-13T14:12:43.192Z,10.88
2022-12-13T14:14:22.998Z,10.25
2022-12-13T14:15:49.852Z,7.35
2022-12-13T14:17:11.099Z,7.65
2022-12-13T14:18:31.493Z,10.23
2022-12-13T14:19:56.611Z,9.60
2022-12-13T14:20:58.909Z,10.45
2022-12-13T14:22:46.061Z,15.65
2022-12-13T14:23:48.479Z,7.75
2022-12-13T14:25:11.672Z,8.65
2022-12-13T14:26:42.453Z,8.98
2022-12-13T14:27:59.761Z,12.10
2022-12-13T14:29:09.844Z,9.90
2022-12-13T14:30:28.218Z,9.52
2022-12-13T14:31:40.954Z,8.02
2022-12-13T14:32:43.623Z,8.48
2022-12-13T14:33:47.451Z,9.45
2022-12-13T14:34:49.957Z,9.82
2022-12-13T14:36:05.336Z,9.68
2022-12-13T14:37:22.465Z,7.30
2022-12-13T14:38:28.135Z,8.27
2022-12-13T14:39:34.912Z,8.80
2022-12-13T14:40:48.506Z,8.15
2022-12-13T14:41:56.545Z,11.30
2022-12-13T14:43:00.859Z,10.75
2022-12-13T14:44:35.455Z,9.00
2022-12-13T14:45:39.326Z,8.75
2022-12-13T14:46:58.401Z,10.73
2022-12-13T14:48:05.809Z,9.32
2022-12-13T14:49:12.623Z,8.27
2022-12-13T14:50:19.047Z,8.20
2022-12-13T14:51:38.023Z,8.90
2022-12-13T14:52:40.978Z,9.60
2022-12-13T14:53:43.577Z,8.45
2022-12-13T14:54:49.371Z,8.70
2022-12-13T14:56:28.635Z,7.88
2022-12-13T14:57:33.907Z,9.27
2022-12-13T14:58:37.502Z,10.50
2022-12-13T14:59:50.249Z,9.85
2022-12-13T15:01:00.726Z,11.25
2022-12-13T15:02:05.282Z,7.50
2022-12-13T15:03:07.985Z,13.82
2022-12-13T15:04:22.725Z,9.52
2022-12-13T15:05:45.734Z,9.90
2022-12-13T15:07:32.847Z,14.63
2022-12-13T15:08:37.497Z,12.75